createdAt,value
2023-03-06T00:01:25.301Z,79.67
2023-03-06T00:04:14.135Z,79.55
2023-03-06T00:07:03.180Z,79.51
2023-03-06T00:09:52.280Z,79.55
2023-03-06T00:12:41.447Z,79.55
2023-03-06T00:15:30.336Z,79.47
2023-03-06T00:18:19.187Z,79.56
2023-03-06T00:21:08.829Z,79.66
2023-03-06T00:23:58.440Z,79.70
2023-03-06T00:26:47.221Z,79.68
2023-03-06T00:29:36.893Z,79.91
2023-03-06T00:32:26.823Z,79.93
2023-03-06T00:35:17.065Z,79.97
2023-03-06T00:38:05.832Z,79.77
2023-03-06T00:40:54.842Z,79.90
2023-03-06T00:43:43.590Z,79.87
2023-03-06T00:46:33.104Z,79.89
2023-03-06T00:49:21.735Z,79.87
2023-03-06T00:52:11.013Z,79.95
2023-03-06T00:55:00.484Z,79.96
2023-03-06T00:57:49.632Z,79.86
2023-03-06T01:00:38.638Z,80.00
2023-03-06T01:03:28.444Z,80.23
2023-03-06T01:06:17.579Z,80.24
2023-03-06T01:09:06.674Z,80.14
2023-03-06T01:11:55.994Z,80.02
2023-03-06T01:14:45.729Z,80.26
2023-03-06T01:17:34.573Z,80.25
2023-03-06T01:20:25.206Z,80.35
2023-03-06T01:23:14.277Z,80.37
2023-03-06T01:26:04.154Z,80.40
2023-03-06T01:28:52.872Z,80.29
2023-03-06T01:31:41.886Z,80.42
2023-03-06T01:34:30.888Z,80.30
2023-03-06T01:37:20.013Z,80.37
2023-03-06T01:40:10.732Z,80.31
2023-03-06T01:43:29.141Z,80.14
2023-03-06T01:46:32.836Z,80.11
2023-03-06T01:49:28.930Z,80.09
2023-03-06T01:52:21.927Z,79.89
2023-03-06T01:55:16.322Z,79.81
2023-03-06T01:58:09.025Z,79.81
2023-03-06T02:05:59.472Z,80.00
2023-03-06T02:08:51.675Z,80.21
2023-03-06T02:11:44.368Z,80.27
2023-03-06T02:14:33.202Z,80.33
2023-03-06T02:17:23.582Z,80.37
2023-03-06T02:20:22.811Z,80.51
2023-03-06T02:23:23.293Z,80.56
2023-03-06T02:26:12.448Z,80.53
2023-03-06T02:29:01.305Z,80.69
2023-03-06T02:31:50.672Z,81.12
2023-03-06T02:34:39.682Z,81.15
2023-03-06T02:37:29.400Z,81.12
2023-03-06T02:40:20.709Z,81.37
2023-03-06T02:43:13.232Z,81.44
2023-03-06T02:46:02.294Z,81.51
2023-03-06T02:48:50.972Z,81.79
2023-03-06T02:51:39.713Z,81.89
2023-03-06T02:54:28.436Z,82.05
2023-03-06T02:57:17.192Z,82.14
2023-03-06T03:00:07.341Z,82.03
2023-03-06T03:02:56.942Z,82.16
2023-03-06T03:05:45.657Z,82.33
2023-03-06T03:08:41.384Z,82.46
2023-03-06T03:11:31.159Z,82.53
2023-03-06T03:14:20.024Z,82.85
2023-03-06T03:17:09.406Z,82.79
2023-03-06T03:19:58.182Z,82.74
2023-03-06T03:22:55.493Z,82.73
2023-03-06T03:25:44.385Z,82.75
2023-03-06T03:28:33.275Z,82.72
2023-03-06T03:31:22.212Z,82.86
2023-03-06T03:34:12.016Z,82.65
2023-03-06T03:37:01.762Z,82.54
2023-03-06T03:39:50.686Z,82.65
2023-03-06T03:42:39.739Z,82.79
2023-03-06T03:45:28.968Z,82.98
2023-03-06T03:48:18.201Z,83.16
2023-03-06T03:51:12.943Z,83.12
2023-03-06T03:54:07.016Z,83.19
2023-03-06T03:57:01.197Z,83.29
2023-03-06T03:59:54.390Z,83.33
2023-03-06T04:02:47.856Z,83.36
2023-03-06T04:05:47.183Z,83.26
2023-03-06T04:08:37.357Z,83.25
2023-03-06T04:11:26.566Z,83.43
2023-03-06T04:14:15.663Z,83.45
2023-03-06T04:17:04.782Z,83.53
2023-03-06T04:19:53.729Z,83.38
2023-03-06T04:22:43.526Z,83.42
2023-03-06T04:25:32.874Z,83.46
2023-03-06T04:28:21.874Z,83.42
2023-03-06T04:31:14.373Z,83.51
2023-03-06T04:34:03.271Z,83.38
2023-03-06T04:36:52.389Z,83.50
2023-03-06T04:39:41.369Z,83.48
2023-03-06T04:42:30.277Z,83.68
2023-03-06T04:45:19.052Z,83.64
2023-03-06T04:48:07.965Z,83.67
2023-03-06T04:50:56.758Z,83.77
2023-03-06T04:53:45.676Z,83.71
2023-03-06T04:56:34.850Z,83.84
2023-03-06T04:59:23.564Z,83.75
2023-03-06T05:02:12.210Z,83.73
2023-03-06T05:05:01.432Z,83.72
2023-03-06T05:07:50.362Z,83.76
2023-03-06T05:10:39.192Z,83.74
2023-03-06T05:13:29.236Z,83.70
2023-03-06T05:16:18.277Z,83.80
2023-03-06T05:19:07.149Z,83.80
2023-03-06T05:21:55.870Z,83.85
2023-03-06T05:24:44.808Z,83.88
2023-03-06T05:27:34.251Z,83.86
2023-03-06T05:30:23.552Z,83.84
2023-03-06T05:33:12.388Z,83.93
2023-03-06T05:36:02.151Z,83.84
2023-03-06T05:38:51.039Z,83.86
2023-03-06T05:41:40.099Z,84.08
2023-03-06T05:44:34.341Z,84.03
2023-03-06T05:47:23.025Z,84.09
2023-03-06T05:50:13.958Z,84.22
2023-03-06T05:53:02.825Z,84.36
2023-03-06T05:55:58.962Z,84.33
2023-03-06T05:58:48.693Z,84.34
2023-03-06T06:01:37.450Z,84.31
2023-03-06T06:04:26.749Z,84.36
2023-03-06T06:07:16.663Z,84.41
2023-03-06T06:10:06.734Z,84.43
2023-03-06T06:12:55.470Z,84.31
2023-03-06T06:15:44.344Z,84.27
2023-03-06T06:18:33.136Z,84.21
2023-03-06T06:21:21.915Z,84.18
2023-03-06T06:24:10.591Z,84.13
2023-03-06T06:27:02.591Z,84.06
2023-03-06T06:29:52.700Z,83.94
2023-03-06T06:32:41.863Z,83.99
2023-03-06T06:35:30.676Z,84.05
2023-03-06T06:38:19.983Z,83.97
2023-03-06T06:41:38.824Z,83.90
2023-03-06T06:44:19.294Z,83.85
2023-03-06T06:47:25.401Z,83.83
2023-03-06T06:50:14.557Z,83.92
2023-03-06T06:53:03.250Z,83.98
2023-03-06T06:55:52.331Z,83.91
2023-03-06T06:58:41.197Z,83.94
2023-03-06T07:01:30.148Z,83.95
2023-03-06T07:04:20.135Z,83.90
2023-03-06T07:07:09.142Z,83.78
2023-03-06T07:09:57.908Z,83.88
2023-03-06T07:12:47.249Z,83.98
2023-03-06T07:15:36.095Z,83.85
2023-03-06T07:18:25.114Z,83.82
2023-03-06T07:21:14.463Z,83.80
2023-03-06T07:24:03.564Z,83.70
2023-03-06T07:26:52.602Z,83.56
2023-03-06T07:29:43.706Z,83.48
2023-03-06T07:32:32.482Z,83.42
2023-03-06T07:35:21.913Z,83.43
2023-03-06T07:38:11.155Z,83.56
2023-03-06T07:41:00.670Z,83.49
2023-03-06T07:43:50.337Z,83.36
2023-03-06T07:46:39.360Z,83.24
2023-03-06T07:49:28.164Z,83.49
2023-03-06T07:52:17.174Z,83.52
2023-03-06T07:55:07.944Z,83.39
2023-03-06T07:57:56.829Z,83.30
2023-03-06T08:00:45.785Z,83.21
2023-03-06T08:03:34.969Z,83.07
2023-03-06T08:06:26.306Z,83.21
2023-03-06T08:09:15.385Z,83.11
2023-03-06T08:12:04.217Z,83.18
2023-03-06T08:14:53.081Z,83.25
2023-03-06T08:17:41.784Z,83.26
2023-03-06T08:20:31.049Z,83.27
2023-03-06T08:23:19.774Z,83.52
2023-03-06T08:26:12.460Z,83.47
2023-03-06T08:29:02.722Z,83.81
2023-03-06T08:31:52.067Z,83.72
2023-03-06T08:34:42.549Z,83.63
2023-03-06T08:37:31.686Z,83.60
2023-03-06T08:40:20.341Z,83.78
2023-03-06T08:43:12.986Z,83.80
2023-03-06T08:46:03.700Z,83.73
2023-03-06T08:48:52.719Z,83.74
2023-03-06T08:51:42.489Z,83.94
2023-03-06T08:54:31.497Z,83.89
2023-03-06T08:57:20.054Z,83.83
2023-03-06T09:00:11.098Z,83.42
2023-03-06T09:02:59.809Z,83.08
2023-03-06T09:05:48.517Z,82.95
2023-03-06T09:08:37.458Z,83.14
2023-03-06T09:11:27.353Z,83.10
2023-03-06T09:14:16.060Z,83.16
2023-03-06T09:17:04.868Z,83.04
2023-03-06T09:19:53.577Z,82.86
2023-03-06T09:22:42.678Z,83.10
2023-03-06T09:25:31.654Z,83.06
2023-03-06T09:28:20.614Z,82.91
2023-03-06T09:31:16.220Z,82.60
2023-03-06T09:34:05.227Z,82.54
2023-03-06T09:36:57.340Z,82.90
2023-03-06T09:39:46.506Z,82.91
2023-03-06T09:42:36.119Z,82.60
2023-03-06T09:45:24.933Z,82.70
2023-03-06T09:48:15.863Z,82.47
2023-03-06T09:51:14.876Z,82.32
2023-03-06T09:54:03.884Z,81.79
2023-03-06T09:56:52.689Z,81.83
2023-03-06T09:59:46.727Z,81.96
2023-03-06T10:02:42.532Z,81.85
2023-03-06T10:05:44.642Z,81.80
2023-03-06T10:08:45.994Z,81.50
2023-03-06T10:11:51.676Z,81.64
2023-03-06T10:14:47.759Z,81.70
2023-03-06T10:17:43.557Z,81.73
2023-03-06T10:20:50.005Z,81.14
2023-03-06T10:23:43.310Z,80.92
2023-03-06T10:26:38.309Z,80.36
2023-03-06T10:29:37.084Z,80.19
2023-03-06T10:32:48.235Z,80.15
2023-03-06T10:35:48.473Z,79.21
2023-03-06T10:38:37.756Z,79.07
2023-03-06T10:41:32.017Z,78.97
2023-03-06T10:44:22.550Z,78.77
2023-03-06T10:47:35.278Z,78.57
2023-03-06T10:50:30.689Z,78.36
2023-03-06T10:53:23.268Z,78.49
2023-03-06T10:56:12.227Z,78.36
2023-03-06T10:59:21.691Z,78.16
2023-03-06T11:02:41.601Z,77.83
2023-03-06T11:05:30.541Z,77.75
2023-03-06T11:08:23.223Z,77.14
2023-03-06T11:11:18.536Z,77.37
2023-03-06T11:14:23.333Z,77.16
2023-03-06T11:17:33.848Z,77.72
2023-03-06T11:20:31.766Z,77.29
2023-03-06T11:23:33.040Z,77.23
2023-03-06T11:26:40.039Z,77.59
2023-03-06T11:29:47.132Z,77.69
2023-03-06T11:33:16.102Z,77.24
2023-03-06T11:36:22.910Z,77.51
2023-03-06T11:39:37.177Z,77.23
2023-03-06T11:42:27.183Z,77.10
2023-03-06T11:45:45.148Z,76.65
2023-03-06T11:48:39.291Z,76.50
2023-03-06T11:51:35.893Z,76.62
2023-03-06T11:54:24.896Z,76.58
2023-03-06T11:57:20.725Z,77.11
2023-03-06T12:00:32.994Z,76.79
2023-03-06T12:03:52.945Z,76.27
2023-03-06T12:06:47.164Z,76.25
2023-03-06T12:10:07.168Z,76.25
2023-03-06T12:13:19.108Z,76.23
2023-03-06T12:16:31.490Z,76.38
2023-03-06T12:19:29.271Z,76.05
2023-03-06T12:22:58.176Z,75.93
2023-03-06T12:25:59.281Z,75.66
2023-03-06T12:29:06.483Z,75.47
2023-03-06T12:32:08.824Z,75.75
2023-03-06T12:35:10.727Z,75.41
2023-03-06T12:38:18.219Z,75.80
2023-03-06T12:41:26.316Z,75.41
2023-03-06T12:44:50.683Z,75.17
2023-03-06T12:47:44.908Z,74.75
2023-03-06T12:50:38.566Z,74.49
2023-03-06T12:53:31.054Z,74.19
2023-03-06T12:56:21.895Z,73.73
2023-03-06T12:59:44.760Z,73.53
2023-03-06T13:03:01.890Z,73.30
2023-03-06T13:06:00.789Z,73.58
2023-03-06T13:09:01.607Z,73.21
2023-03-06T13:12:25.610Z,72.96
2023-03-06T13:16:04.184Z,73.24
2023-03-06T13:19:12.811Z,72.65
2023-03-06T13:22:02.531Z,72.88
2023-03-06T13:25:11.138Z,73.13
2023-03-06T13:28:03.356Z,73.03
2023-03-06T13:30:53.284Z,73.05
2023-03-06T13:33:44.755Z,73.17
2023-03-06T13:36:34.410Z,73.08
2023-03-06T13:39:23.162Z,72.59
2023-03-06T13:42:25.936Z,72.17
2023-03-06T13:45:25.749Z,71.82
2023-03-06T13:48:43.208Z,71.79
2023-03-06T13:51:36.032Z,72.07
2023-03-06T13:54:34.713Z,71.96
2023-03-06T13:57:29.945Z,71.69
2023-03-06T14:00:37.144Z,72.27
2023-03-06T14:03:35.219Z,72.09
2023-03-06T14:06:36.034Z,72.03
2023-03-06T14:09:29.995Z,71.44
2023-03-06T14:12:28.806Z,71.74
2023-03-06T14:15:30.585Z,71.60
2023-03-06T14:18:36.748Z,71.37
2023-03-06T14:21:56.521Z,70.85
2023-03-06T14:24:55.414Z,70.93
2023-03-06T14:27:48.438Z,70.58
2023-03-06T14:30:37.294Z,70.55
2023-03-06T14:33:58.606Z,70.50
2023-03-06T14:36:51.510Z,70.73
2023-03-06T14:39:42.984Z,70.24
2023-03-06T14:42:31.956Z,70.39
2023-03-06T14:45:21.392Z,71.23
2023-03-06T14:48:15.450Z,71.95
2023-03-06T14:51:04.380Z,72.43
2023-03-06T14:53:54.807Z,72.96
2023-03-06T14:56:47.511Z,73.41
2023-03-06T14:59:44.010Z,73.56
2023-03-06T15:02:33.934Z,73.90
2023-03-06T15:05:28.987Z,73.96
2023-03-06T15:08:23.465Z,74.03
2023-03-06T15:11:12.625Z,74.34
2023-03-06T15:14:05.538Z,74.42
2023-03-06T15:16:54.477Z,74.48
2023-03-06T15:19:48.674Z,74.55
2023-03-06T15:22:39.047Z,74.56
2023-03-06T15:25:30.512Z,74.69
2023-03-06T15:28:28.468Z,74.94
2023-03-06T15:31:23.154Z,75.05
2023-03-06T15:34:17.549Z,75.12
2023-03-06T15:37:28.860Z,74.93
2023-03-06T15:40:20.868Z,75.10
2023-03-06T15:43:11.180Z,75.13
2023-03-06T15:46:01.214Z,75.14
2023-03-06T15:49:04.288Z,75.41
2023-03-06T15:51:53.164Z,75.54
2023-03-06T15:54:41.963Z,75.72
2023-03-06T15:57:31.672Z,75.94
2023-03-06T16:00:38.598Z,76.16
2023-03-06T16:03:27.301Z,76.29
2023-03-06T16:06:27.392Z,76.57
2023-03-06T16:09:18.652Z,76.80
2023-03-06T16:12:14.713Z,77.03
2023-03-06T16:15:04.499Z,77.41
2023-03-06T16:17:53.301Z,77.71
2023-03-06T16:20:42.275Z,78.00
2023-03-06T16:23:31.155Z,78.23
2023-03-06T16:26:27.155Z,78.41
2023-03-06T16:29:26.878Z,78.55
2023-03-06T16:32:15.677Z,78.75
2023-03-06T16:35:05.008Z,79.10
2023-03-06T16:37:53.968Z,79.36
2023-03-06T16:40:42.959Z,79.58
2023-03-06T16:43:32.022Z,79.54
2023-03-06T16:46:23.852Z,79.61
2023-03-06T16:49:32.875Z,79.79
2023-03-06T16:52:21.635Z,80.04
2023-03-06T16:55:10.435Z,79.95
2023-03-06T16:57:59.266Z,79.91
2023-03-06T17:00:48.215Z,80.12
2023-03-06T17:03:37.159Z,80.15
2023-03-06T17:06:25.924Z,80.14
2023-03-06T17:09:14.531Z,80.29
2023-03-06T17:12:03.322Z,80.65
2023-03-06T17:14:53.049Z,80.60
2023-03-06T17:17:41.913Z,80.69
2023-03-06T17:20:33.250Z,80.75
2023-03-06T17:23:26.368Z,80.85
2023-03-06T17:26:20.556Z,80.89
2023-03-06T17:29:09.868Z,80.85
2023-03-06T17:31:58.559Z,81.32
2023-03-06T17:34:48.040Z,81.42
2023-03-06T17:37:36.913Z,81.18
2023-03-06T17:40:25.670Z,81.23
2023-03-06T17:43:14.417Z,81.51
2023-03-06T17:46:05.468Z,81.78
2023-03-06T17:48:55.234Z,81.86
2023-03-06T17:51:44.182Z,81.92
2023-03-06T17:54:33.407Z,82.15
2023-03-06T17:57:22.392Z,82.22
2023-03-06T18:00:12.009Z,82.29
2023-03-06T18:03:04.845Z,82.40
2023-03-06T18:05:59.866Z,82.39
2023-03-06T18:08:52.377Z,82.34
2023-03-06T18:11:42.288Z,82.38
2023-03-06T18:14:31.095Z,82.44
2023-03-06T18:17:19.912Z,82.39
2023-03-06T18:20:09.540Z,82.63
2023-03-06T18:23:03.359Z,82.51
2023-03-06T18:25:53.016Z,82.56
2023-03-06T18:28:47.171Z,82.71
2023-03-06T18:31:38.787Z,82.70
2023-03-06T18:34:27.711Z,82.69
2023-03-06T18:37:18.078Z,82.74
2023-03-06T18:40:08.028Z,82.83
2023-03-06T18:42:56.797Z,83.10
2023-03-06T18:45:54.315Z,83.28
2023-03-06T18:48:43.092Z,83.16
2023-03-06T18:51:32.814Z,83.11
2023-03-06T18:54:21.632Z,83.13
2023-03-06T18:57:11.399Z,83.29
2023-03-06T19:00:00.278Z,83.26
2023-03-06T19:02:50.039Z,83.37
2023-03-06T19:05:40.869Z,83.61
2023-03-06T19:08:29.615Z,83.43
2023-03-06T19:11:18.621Z,83.57
2023-03-06T19:14:07.762Z,83.59
2023-03-06T19:16:56.737Z,83.64
2023-03-06T19:19:45.483Z,83.76
2023-03-06T19:22:37.429Z,83.85
2023-03-06T19:25:26.291Z,83.87
2023-03-06T19:28:15.365Z,83.95
2023-03-06T19:31:16.124Z,84.13
2023-03-06T19:34:04.956Z,83.98
2023-03-06T19:36:53.742Z,83.99
2023-03-06T19:39:43.890Z,83.92
2023-03-06T19:42:32.774Z,84.05
2023-03-06T19:45:21.868Z,84.03
2023-03-06T19:48:12.481Z,83.82
2023-03-06T19:51:06.330Z,83.71
2023-03-06T19:53:56.486Z,83.61
2023-03-06T19:56:45.469Z,83.84
2023-03-06T19:59:34.313Z,84.06
2023-03-06T20:02:27.419Z,84.19
2023-03-06T20:05:17.064Z,84.16
2023-03-06T20:08:05.719Z,84.18
2023-03-06T20:10:54.387Z,84.06
2023-03-06T20:13:47.348Z,84.06
2023-03-06T20:16:37.271Z,83.94
2023-03-06T20:19:26.194Z,84.14
2023-03-06T20:22:15.013Z,84.57
2023-03-06T20:25:03.819Z,84.39
2023-03-06T20:27:52.630Z,84.36
2023-03-06T20:30:41.392Z,84.60
2023-03-06T20:33:30.266Z,84.31
2023-03-06T20:36:35.761Z,84.33
2023-03-06T20:39:25.517Z,84.56
2023-03-06T20:42:14.691Z,84.99
2023-03-06T20:45:04.542Z,85.01
2023-03-06T20:47:56.505Z,85.17
2023-03-06T20:50:45.204Z,85.35
2023-03-06T20:53:35.442Z,85.30
2023-03-06T20:56:26.767Z,85.26
2023-03-06T20:59:16.171Z,85.22
2023-03-06T21:02:04.929Z,84.88
2023-03-06T21:04:53.759Z,84.86
2023-03-06T21:07:42.839Z,84.88
2023-03-06T21:10:31.844Z,84.96
2023-03-06T21:13:20.529Z,84.93
2023-03-06T21:16:14.914Z,84.92
2023-03-06T21:19:03.865Z,84.85
2023-03-06T21:21:52.740Z,84.74
2023-03-06T21:24:41.540Z,84.47
2023-03-06T21:27:30.533Z,84.38
2023-03-06T21:30:19.428Z,84.35
2023-03-06T21:33:10.939Z,84.14
2023-03-06T21:35:59.838Z,84.34
2023-03-06T21:38:49.702Z,84.36
2023-03-06T21:41:38.562Z,84.40
2023-03-06T21:44:27.732Z,84.42
2023-03-06T21:47:16.589Z,84.40
2023-03-06T21:50:06.790Z,84.52
2023-03-06T21:52:56.789Z,84.42
2023-03-06T21:55:45.473Z,84.33
2023-03-06T21:58:34.174Z,84.31
2023-03-06T22:01:25.910Z,84.33
2023-03-06T22:04:14.843Z,84.48
2023-03-06T22:07:03.709Z,84.57
2023-03-06T22:09:53.844Z,84.50
2023-03-06T22:12:42.914Z,84.39
2023-03-06T22:15:31.786Z,84.36
2023-03-06T22:18:20.472Z,84.36
2023-03-06T22:21:12.192Z,84.46
2023-03-06T22:24:01.005Z,84.67
2023-03-06T22:26:50.125Z,84.66
2023-03-06T22:29:39.014Z,84.68
2023-03-06T22:32:27.783Z,84.73
2023-03-06T22:35:16.819Z,84.79
2023-03-06T22:38:05.586Z,84.80
2023-03-06T22:40:57.283Z,84.91
2023-03-06T22:43:45.999Z,85.03
2023-03-06T22:46:34.820Z,85.20
2023-03-06T22:49:23.717Z,85.15
2023-03-06T22:52:15.130Z,85.39
2023-03-06T22:55:04.605Z,85.56
2023-03-06T22:57:53.736Z,85.46
2023-03-06T23:00:42.476Z,85.52
2023-03-06T23:03:31.568Z,85.50
2023-03-06T23:06:22.447Z,85.68
2023-03-06T23:09:21.539Z,85.59
2023-03-06T23:12:28.972Z,85.64
2023-03-06T23:15:37.184Z,85.63
2023-03-06T23:18:44.897Z,85.66
2023-03-06T23:21:52.010Z,85.66
2023-03-06T23:24:59.478Z,85.67
2023-03-06T23:27:48.519Z,85.52
2023-03-06T23:30:41.399Z,85.80
2023-03-06T23:33:30.269Z,85.84
2023-03-06T23:36:19.421Z,85.71
2023-03-06T23:39:08.956Z,85.70
2023-03-06T23:41:57.841Z,85.65
2023-03-06T23:44:46.784Z,85.69
2023-03-06T23:47:35.539Z,85.86
2023-03-06T23:50:24.946Z,85.84
2023-03-06T23:53:14.579Z,85.58
2023-03-06T23:56:06.408Z,85.81
2023-03-06T23:58:55.551Z,85.94
